createdAt,value
2018-03-23T00:01:49.982Z,9.80
2018-03-23T00:05:13.258Z,10.37
2018-03-23T00:08:36.631Z,10.83
2018-03-23T00:11:59.917Z,9.87
2018-03-23T00:15:23.182Z,9.23
2018-03-23T00:18:46.520Z,9.63
2018-03-23T00:22:09.835Z,9.87
2018-03-23T00:25:33.123Z,9.27
2018-03-23T00:28:56.396Z,9.80
2018-03-23T00:32:19.664Z,9.77
2018-03-23T00:35:43.694Z,9.87
2018-03-23T00:39:06.974Z,9.70
2018-03-23T00:42:30.260Z,8.93
2018-03-23T00:45:53.539Z,9.97
2018-03-23T00:49:16.850Z,10.13
2018-03-23T00:52:40.129Z,10.47
2018-03-23T00:56:03.398Z,9.87
2018-03-23T00:59:26.689Z,10.63
2018-03-23T01:02:49.970Z,10.03
2018-03-23T01:06:13.243Z,10.13
2018-03-23T01:09:36.530Z,9.90
2018-03-23T01:12:59.834Z,9.83
2018-03-23T01:16:23.137Z,10.43
2018-03-23T01:19:46.470Z,10.60
2018-03-23T01:23:09.744Z,10.20
2018-03-23T01:26:33.016Z,9.67
2018-03-23T01:29:57.118Z,10.10
2018-03-23T01:33:21.208Z,10.00
2018-03-23T01:36:44.474Z,10.70
2018-03-23T01:40:07.774Z,10.00
2018-03-23T01:43:31.067Z,9.53
2018-03-23T01:46:54.386Z,10.00
2018-03-23T01:50:18.431Z,9.57
2018-03-23T01:53:45.596Z,9.70
2018-03-23T01:57:08.919Z,9.97
2018-03-23T02:00:32.199Z,10.73
2018-03-23T02:03:55.530Z,10.17
2018-03-23T02:07:18.853Z,9.70
2018-03-23T02:10:42.193Z,10.00
2018-03-23T02:14:06.289Z,9.37
2018-03-23T02:17:29.562Z,9.50
2018-03-23T02:20:52.854Z,11.33
2018-03-23T02:24:16.125Z,9.93
2018-03-23T02:27:39.398Z,10.57
2018-03-23T02:31:03.505Z,11.23
2018-03-23T02:34:26.789Z,10.50
2018-03-23T02:37:50.087Z,10.70
2018-03-23T02:41:13.351Z,10.73
2018-03-23T02:44:36.646Z,11.40
2018-03-23T02:47:59.931Z,11.03
2018-03-23T02:51:23.213Z,10.57
2018-03-23T02:54:46.511Z,13.00
2018-03-23T02:58:09.768Z,12.60
2018-03-23T03:01:33.958Z,11.80
2018-03-23T03:04:57.298Z,11.63
2018-03-23T03:08:20.575Z,11.10
2018-03-23T03:11:43.864Z,12.00
2018-03-23T03:15:07.145Z,11.93
2018-03-23T03:18:30.430Z,11.53
2018-03-23T03:21:53.722Z,10.73
2018-03-23T03:25:17.026Z,11.53
2018-03-23T03:28:40.348Z,11.47
2018-03-23T03:32:03.703Z,11.93
2018-03-23T03:35:27.003Z,11.73
2018-03-23T03:38:50.286Z,10.90
2018-03-23T03:42:13.568Z,11.00
2018-03-23T03:45:36.834Z,11.83
2018-03-23T03:49:00.141Z,11.13
2018-03-23T03:52:23.420Z,10.73
2018-03-23T03:55:46.689Z,11.40
2018-03-23T03:59:10.001Z,12.47
2018-03-23T04:02:33.258Z,11.27
2018-03-23T04:05:56.561Z,11.27
2018-03-23T04:09:19.843Z,12.30
2018-03-23T04:12:43.129Z,9.60
2018-03-23T04:16:06.416Z,11.43
2018-03-23T04:19:29.719Z,10.27
2018-03-23T04:22:52.986Z,10.37
2018-03-23T04:26:16.252Z,10.07
2018-03-23T04:29:39.540Z,10.40
2018-03-23T04:33:02.829Z,11.23
2018-03-23T04:36:26.109Z,10.40
2018-03-23T04:39:49.412Z,12.63
2018-03-23T04:43:12.674Z,11.00
2018-03-23T04:46:35.953Z,11.00
2018-03-23T04:50:00.045Z,10.43
2018-03-23T04:53:23.326Z,11.97
2018-03-23T04:56:46.616Z,11.60
2018-03-23T05:00:09.900Z,11.47
2018-03-23T05:03:33.181Z,12.20
2018-03-23T05:06:56.477Z,12.17
2018-03-23T05:10:19.751Z,11.30
2018-03-23T05:13:43.027Z,11.63
2018-03-23T05:17:07.332Z,10.73
2018-03-23T05:20:30.651Z,10.40
2018-03-23T05:23:53.983Z,9.77
2018-03-23T05:27:18.138Z,9.73
2018-03-23T05:30:42.224Z,10.60
2018-03-23T05:34:05.496Z,10.67
2018-03-23T05:37:28.797Z,10.83
2018-03-23T05:40:52.882Z,10.83
2018-03-23T05:44:16.176Z,9.97
2018-03-23T05:47:39.554Z,10.03
2018-03-23T05:51:03.604Z,10.83
2018-03-23T05:54:26.900Z,10.17
2018-03-23T05:57:50.538Z,10.37
2018-03-23T06:01:13.840Z,10.23
2018-03-23T06:04:37.192Z,11.43
2018-03-23T06:08:00.496Z,10.90
2018-03-23T06:11:23.843Z,9.03
2018-03-23T06:14:47.186Z,9.70
2018-03-23T06:18:10.460Z,11.50
2018-03-23T06:21:33.744Z,11.83
2018-03-23T06:24:57.032Z,12.47
2018-03-23T06:28:20.304Z,12.13
2018-03-23T06:31:43.793Z,13.43
2018-03-23T06:35:07.922Z,13.60
2018-03-23T06:38:31.272Z,13.27
2018-03-23T06:41:54.543Z,13.63
2018-03-23T06:45:17.828Z,13.63
2018-03-23T06:48:41.095Z,13.63
2018-03-23T06:52:04.385Z,13.53
2018-03-23T06:55:27.694Z,14.97
2018-03-23T06:58:50.962Z,13.07
2018-03-23T07:02:14.243Z,13.80
2018-03-23T07:05:37.504Z,11.87
2018-03-23T07:09:01.528Z,12.47
2018-03-23T07:12:24.830Z,11.07
2018-03-23T07:15:48.105Z,11.33
2018-03-23T07:19:11.382Z,11.03
2018-03-23T07:22:34.691Z,12.03
2018-03-23T07:25:57.974Z,11.90
2018-03-23T07:29:21.234Z,11.30
2018-03-23T07:32:44.500Z,11.67
2018-03-23T07:36:08.560Z,10.57
2018-03-23T07:39:31.856Z,10.60
2018-03-23T07:42:55.137Z,10.43
2018-03-23T07:46:18.439Z,11.57
2018-03-23T07:49:42.499Z,11.97
2018-03-23T07:53:05.770Z,12.70
2018-03-23T07:56:29.044Z,11.70
2018-03-23T07:59:52.311Z,12.20
2018-03-23T08:03:16.333Z,10.90
2018-03-23T08:06:39.654Z,10.40
2018-03-23T08:10:02.923Z,9.93
2018-03-23T08:13:26.339Z,9.87
2018-03-23T08:16:49.632Z,9.20
2018-03-23T08:20:12.892Z,10.07
2018-03-23T08:23:36.915Z,9.23
2018-03-23T08:27:00.183Z,8.83
2018-03-23T08:30:24.203Z,9.13
2018-03-23T08:33:47.489Z,9.50
2018-03-23T08:37:10.770Z,9.67
2018-03-23T08:40:34.905Z,9.57
2018-03-23T08:43:58.920Z,9.23
2018-03-23T08:47:22.971Z,9.30
2018-03-23T08:50:46.330Z,10.37
2018-03-23T08:54:09.612Z,10.30
2018-03-23T08:57:32.880Z,10.20
2018-03-23T09:00:56.154Z,10.23
2018-03-23T09:04:19.426Z,11.20
2018-03-23T09:07:43.474Z,12.20
2018-03-23T09:11:06.738Z,10.50
2018-03-23T09:14:30.741Z,10.90
2018-03-23T09:17:54.862Z,10.33
2018-03-23T09:21:18.246Z,10.97
2018-03-23T09:24:41.603Z,11.10
2018-03-23T09:28:05.024Z,10.17
2018-03-23T09:31:28.396Z,11.17
2018-03-23T09:34:52.445Z,10.23
2018-03-23T09:38:15.723Z,10.87
2018-03-23T09:41:38.997Z,11.27
2018-03-23T09:45:02.273Z,10.37
2018-03-23T09:48:25.553Z,10.50
2018-03-23T09:51:49.819Z,11.13
2018-03-23T09:55:13.116Z,10.70
2018-03-23T09:58:36.407Z,10.23
2018-03-23T10:02:00.439Z,11.20
2018-03-23T10:05:23.754Z,10.03
2018-03-23T10:08:47.220Z,10.77
2018-03-23T10:12:11.402Z,10.53
2018-03-23T10:15:35.377Z,10.83
2018-03-23T10:18:59.547Z,11.30
2018-03-23T10:22:25.039Z,13.07
2018-03-23T10:25:49.671Z,11.63
2018-03-23T10:29:16.061Z,11.30
2018-03-23T10:32:40.039Z,10.70
2018-03-23T10:36:04.034Z,10.83
2018-03-23T10:39:28.090Z,10.63
2018-03-23T10:42:51.372Z,12.20
2018-03-23T10:46:14.639Z,9.33
2018-03-23T10:49:37.912Z,10.97
2018-03-23T10:53:01.236Z,10.43
2018-03-23T10:56:26.118Z,10.77
2018-03-23T10:59:49.850Z,11.07
2018-03-23T11:03:13.939Z,6.93
2018-03-23T11:06:38.770Z,7.33
2018-03-23T11:10:02.422Z,7.63
2018-03-23T11:13:25.979Z,7.17
2018-03-23T11:16:50.030Z,7.60
2018-03-23T11:20:13.440Z,7.10
2018-03-23T11:23:39.816Z,7.53
2018-03-23T11:27:03.960Z,7.57
2018-03-23T11:30:27.256Z,6.80
2018-03-23T11:33:52.579Z,7.77
2018-03-23T11:37:17.595Z,7.83
2018-03-23T11:40:40.983Z,8.53
2018-03-23T11:44:04.422Z,7.63
2018-03-23T11:51:06.701Z,8.53
2018-03-23T11:54:30.065Z,7.20
2018-03-23T11:57:53.573Z,8.07
2018-03-23T12:01:16.875Z,8.30
2018-03-23T12:04:40.190Z,8.77
2018-03-23T12:08:03.524Z,8.70
2018-03-23T12:11:27.808Z,7.83
2018-03-23T12:14:51.138Z,7.90
2018-03-23T12:18:14.436Z,7.90
2018-03-23T12:21:37.747Z,8.90
2018-03-23T12:25:01.860Z,7.50
2018-03-23T12:28:25.256Z,7.67
2018-03-23T12:31:48.577Z,8.03
2018-03-23T12:35:11.873Z,7.80
2018-03-23T12:38:35.198Z,8.03
2018-03-23T12:41:59.266Z,8.97
2018-03-23T12:45:23.348Z,6.20
2018-03-23T12:48:46.763Z,8.70
2018-03-23T12:52:10.101Z,8.50
2018-03-23T12:55:33.414Z,7.07
2018-03-23T12:58:56.738Z,7.03
2018-03-23T13:02:20.068Z,6.73
2018-03-23T13:05:43.423Z,6.57
2018-03-23T13:09:06.722Z,5.67
2018-03-23T13:12:30.059Z,5.83
2018-03-23T13:15:53.395Z,6.80
2018-03-23T13:19:16.757Z,7.13
2018-03-23T13:22:40.111Z,7.33
2018-03-23T13:26:03.370Z,5.67
2018-03-23T13:29:26.647Z,6.10
2018-03-23T13:32:50.696Z,5.90
2018-03-23T13:36:13.981Z,6.07
2018-03-23T13:39:37.323Z,5.97
2018-03-23T13:43:00.620Z,6.33
2018-03-23T13:46:23.946Z,7.00
2018-03-23T13:49:47.395Z,7.10
2018-03-23T13:53:10.717Z,6.47
2018-03-23T13:56:34.772Z,6.03
2018-03-23T13:59:58.924Z,4.87
2018-03-23T14:03:22.279Z,4.87
2018-03-23T14:06:45.556Z,4.67
2018-03-23T14:10:08.863Z,5.30
2018-03-23T14:13:32.136Z,4.67
2018-03-23T14:16:55.511Z,4.50
2018-03-23T14:20:18.871Z,4.60
2018-03-23T14:23:42.911Z,6.50
2018-03-23T14:27:06.192Z,6.40
2018-03-23T14:30:29.497Z,6.60
2018-03-23T14:33:52.789Z,6.80
2018-03-23T14:37:16.076Z,6.83
2018-03-23T14:40:39.350Z,6.67
2018-03-23T14:44:02.621Z,5.80
2018-03-23T14:47:26.854Z,6.10
2018-03-23T14:50:50.177Z,6.60
2018-03-23T14:54:13.458Z,6.20
2018-03-23T14:57:36.734Z,5.43
2018-03-23T15:01:00.020Z,6.10
2018-03-23T15:04:23.319Z,6.17
2018-03-23T15:07:47.350Z,6.13
2018-03-23T15:11:10.634Z,6.27
2018-03-23T15:14:33.931Z,5.67
2018-03-23T15:17:57.203Z,5.00
2018-03-23T15:21:20.476Z,6.47
2018-03-23T15:24:44.523Z,7.27
2018-03-23T15:28:07.786Z,5.97
2018-03-23T15:31:31.073Z,5.70
2018-03-23T15:34:54.416Z,5.97
2018-03-23T15:38:18.449Z,5.70
2018-03-23T15:41:41.843Z,6.03
2018-03-23T15:45:05.127Z,6.73
2018-03-23T15:48:29.256Z,6.33
2018-03-23T15:51:52.619Z,5.70
2018-03-23T15:55:15.921Z,5.40
2018-03-23T15:58:39.187Z,5.70
2018-03-23T16:02:02.484Z,6.27
2018-03-23T16:05:25.893Z,6.13
2018-03-23T16:08:49.183Z,5.70
2018-03-23T16:12:12.519Z,5.57
2018-03-23T16:15:35.899Z,5.13
2018-03-23T16:18:59.192Z,6.13
2018-03-23T16:22:22.451Z,5.80
2018-03-23T16:25:45.748Z,6.17
2018-03-23T16:29:09.005Z,5.57
2018-03-23T16:32:32.311Z,5.23
2018-03-23T16:35:55.705Z,5.50
2018-03-23T16:39:20.006Z,5.20
2018-03-23T16:42:45.278Z,5.03
2018-03-23T16:46:08.712Z,5.57
2018-03-23T16:49:32.276Z,6.13
2018-03-23T16:52:55.818Z,6.50
2018-03-23T16:56:19.330Z,6.40
2018-03-23T16:59:43.457Z,6.17
2018-03-23T17:03:07.156Z,7.13
2018-03-23T17:06:30.630Z,7.50
2018-03-23T17:09:54.861Z,7.70
2018-03-23T17:13:19.556Z,7.93
2018-03-23T17:16:43.338Z,7.33
2018-03-23T17:20:08.154Z,7.57
2018-03-23T17:23:32.097Z,8.17
2018-03-23T17:26:55.681Z,7.53
2018-03-23T17:30:19.177Z,7.73
2018-03-23T17:33:42.598Z,6.63
2018-03-23T17:37:08.949Z,6.07
2018-03-23T17:40:33.233Z,6.70
2018-03-23T17:43:58.784Z,7.03
2018-03-23T17:47:22.438Z,6.77
2018-03-23T17:50:45.930Z,6.57
2018-03-23T17:54:09.472Z,6.67
2018-03-23T17:57:33.110Z,7.20
2018-03-23T18:00:56.533Z,6.33
2018-03-23T18:04:19.984Z,8.07
2018-03-23T18:07:43.306Z,6.90
2018-03-23T18:11:06.639Z,7.30
2018-03-23T18:14:30.708Z,7.37
2018-03-23T18:17:54.015Z,6.43
2018-03-23T18:21:18.095Z,6.50
2018-03-23T18:24:43.238Z,6.10
2018-03-23T18:28:06.871Z,5.77
2018-03-23T18:31:31.003Z,7.17
2018-03-23T18:34:55.157Z,6.97
2018-03-23T18:38:18.608Z,6.70
2018-03-23T18:41:41.929Z,6.10
2018-03-23T18:45:05.283Z,6.53
2018-03-23T18:48:28.651Z,5.93
2018-03-23T18:51:52.035Z,6.30
2018-03-23T18:55:15.460Z,6.50
2018-03-23T18:58:39.548Z,6.43
2018-03-23T19:02:02.866Z,6.37
2018-03-23T19:05:26.300Z,6.47
2018-03-23T19:08:49.803Z,6.07
2018-03-23T19:12:15.105Z,6.10
2018-03-23T19:15:38.466Z,5.67
2018-03-23T19:19:01.772Z,6.83
2018-03-23T19:22:26.367Z,6.30
2018-03-23T19:25:49.685Z,6.40
2018-03-23T19:29:13.803Z,6.33
2018-03-23T19:32:37.391Z,6.63
2018-03-23T19:36:01.507Z,6.70
2018-03-23T19:39:24.991Z,6.57
2018-03-23T19:42:48.301Z,6.40
2018-03-23T19:46:11.616Z,6.80
2018-03-23T19:49:35.803Z,6.63
2018-03-23T19:52:59.235Z,5.87
2018-03-23T19:56:22.607Z,6.40
2018-03-23T19:59:45.953Z,5.97
2018-03-23T20:03:09.544Z,6.53
2018-03-23T20:06:33.945Z,6.03
2018-03-23T20:09:58.608Z,6.37
2018-03-23T20:13:22.827Z,6.50
2018-03-23T20:16:46.376Z,7.30
2018-03-23T20:20:15.159Z,6.73
2018-03-23T20:23:38.461Z,6.87
2018-03-23T20:30:59.639Z,7.57
2018-03-23T20:34:24.136Z,7.33
2018-03-23T20:37:48.285Z,7.97
2018-03-23T20:41:12.645Z,7.67
2018-03-23T20:44:39.506Z,7.10
2018-03-23T20:48:03.655Z,7.20
2018-03-23T20:51:31.336Z,6.70
2018-03-23T20:54:54.634Z,8.27
2018-03-23T20:58:17.916Z,9.03
2018-03-23T21:01:41.383Z,9.40
2018-03-23T21:05:05.524Z,9.67
2018-03-23T21:08:29.593Z,9.03
2018-03-23T21:11:53.244Z,9.37
2018-03-23T21:15:16.771Z,8.43
2018-03-23T21:18:40.313Z,9.43
2018-03-23T21:22:03.595Z,9.27
2018-03-23T21:25:26.934Z,9.70
2018-03-23T21:28:50.375Z,8.93
2018-03-23T21:32:13.731Z,8.87
2018-03-23T21:35:37.231Z,9.30
2018-03-23T21:39:00.575Z,9.27
2018-03-23T21:42:23.887Z,9.43
2018-03-23T21:45:47.147Z,7.90
2018-03-23T21:49:10.447Z,9.40
2018-03-23T21:52:33.808Z,9.07
2018-03-23T21:55:57.157Z,9.63
2018-03-23T21:59:20.539Z,8.37
2018-03-23T22:02:44.669Z,7.87
2018-03-23T22:06:08.029Z,8.20
2018-03-23T22:09:31.481Z,7.20
2018-03-23T22:12:55.607Z,7.47
2018-03-23T22:16:18.946Z,7.27
2018-03-23T22:19:42.219Z,7.87
2018-03-23T22:23:06.312Z,8.83
2018-03-23T22:26:30.358Z,8.87
2018-03-23T22:29:53.625Z,8.17
2018-03-23T22:33:17.524Z,8.27
2018-03-23T22:36:41.859Z,8.53
2018-03-23T22:40:06.485Z,7.57
2018-03-23T22:43:29.930Z,8.10
2018-03-23T22:46:53.321Z,8.77
2018-03-23T22:50:16.727Z,8.27
2018-03-23T22:53:40.991Z,8.27
2018-03-23T22:57:05.069Z,8.63
2018-03-23T23:00:28.552Z,8.43
2018-03-23T23:03:52.649Z,8.13
2018-03-23T23:07:16.237Z,8.33
2018-03-23T23:10:39.492Z,8.37
2018-03-23T23:14:03.601Z,8.53
2018-03-23T23:17:26.886Z,8.93
2018-03-23T23:20:50.152Z,8.27
2018-03-23T23:24:13.644Z,8.13
2018-03-23T23:27:37.775Z,7.60
2018-03-23T23:31:01.082Z,7.00
2018-03-23T23:34:25.334Z,7.10
2018-03-23T23:37:48.687Z,7.67
2018-03-23T23:41:11.998Z,8.07
2018-03-23T23:44:35.319Z,8.93
2018-03-23T23:47:58.626Z,8.50
2018-03-23T23:51:21.879Z,8.40
2018-03-23T23:54:45.939Z,8.83
2018-03-23T23:58:09.270Z,8.93
